createdAt,value
2018-10-18T00:00:43.524Z,16.07
2018-10-18T00:03:11.701Z,16.43
2018-10-18T00:05:39.894Z,16.00
2018-10-18T00:08:08.101Z,27.77
2018-10-18T00:10:36.223Z,17.77
2018-10-18T00:13:04.433Z,24.17
2018-10-18T00:15:32.587Z,21.67
2018-10-18T00:18:00.764Z,17.17
2018-10-18T00:20:28.891Z,17.23
2018-10-18T00:22:57.095Z,18.67
2018-10-18T00:25:25.240Z,17.70
2018-10-18T00:27:53.455Z,17.40
2018-10-18T00:30:21.817Z,14.60
2018-10-18T00:32:49.923Z,17.03
2018-10-18T00:35:18.019Z,15.97
2018-10-18T00:37:46.187Z,18.47
2018-10-18T00:40:14.322Z,13.83
2018-10-18T00:42:42.562Z,17.73
2018-10-18T00:45:10.773Z,15.20
2018-10-18T00:47:38.917Z,16.60
2018-10-18T00:50:09.901Z,19.37
2018-10-18T00:52:38.018Z,15.43
2018-10-18T00:55:08.873Z,22.27
2018-10-18T00:57:37.047Z,21.47
2018-10-18T01:00:06.585Z,24.00
2018-10-18T01:02:34.726Z,98.43
2018-10-18T01:05:03.077Z,33.33
2018-10-18T01:07:31.375Z,519.07
2018-10-18T01:09:59.651Z,157.90
2018-10-18T01:12:27.895Z,35.00
2018-10-18T01:14:55.997Z,33.20
2018-10-18T01:17:24.171Z,42.40
2018-10-18T01:19:52.408Z,37.30
2018-10-18T01:22:20.509Z,26.27
2018-10-18T01:24:48.692Z,28.47
2018-10-18T01:27:16.932Z,22.37
2018-10-18T01:29:45.080Z,19.70
2018-10-18T01:32:13.266Z,22.63
2018-10-18T01:34:41.432Z,19.97
2018-10-18T01:37:09.679Z,19.40
2018-10-18T01:39:38.025Z,20.87
2018-10-18T01:42:06.658Z,18.00
2018-10-18T01:44:34.867Z,18.67
2018-10-18T01:47:03.045Z,19.90
2018-10-18T01:49:31.047Z,17.03
2018-10-18T01:51:59.189Z,19.17
2018-10-18T01:54:27.369Z,25.23
2018-10-18T01:56:55.491Z,21.00
2018-10-18T01:59:23.757Z,26.70
2018-10-18T02:01:51.900Z,32.23
2018-10-18T02:04:20.021Z,26.00
2018-10-18T02:06:48.168Z,30.37
2018-10-18T02:09:16.378Z,77.40
2018-10-18T02:11:44.597Z,33.90
2018-10-18T02:14:12.738Z,29.93
2018-10-18T02:16:40.877Z,31.70
2018-10-18T02:19:09.051Z,25.30
2018-10-18T02:21:37.127Z,51.60
2018-10-18T02:24:05.621Z,73.03
2018-10-18T02:26:33.723Z,209.67
2018-10-18T02:29:01.986Z,256.30
2018-10-18T02:31:30.176Z,185.13
2018-10-18T02:33:58.379Z,258.67
2018-10-18T02:36:26.579Z,144.93
2018-10-18T02:38:54.756Z,138.87
2018-10-18T02:41:22.964Z,61.63
2018-10-18T02:43:51.085Z,61.20
2018-10-18T02:46:19.226Z,68.00
2018-10-18T02:48:47.455Z,32.73
2018-10-18T02:51:15.762Z,34.03
2018-10-18T02:53:43.938Z,37.90
2018-10-18T02:56:12.080Z,33.07
2018-10-18T02:58:40.327Z,43.47
2018-10-18T03:01:08.538Z,30.97
2018-10-18T03:03:36.711Z,52.20
2018-10-18T03:06:04.963Z,36.33
2018-10-18T03:08:33.093Z,43.00
2018-10-18T03:11:01.216Z,54.17
2018-10-18T03:13:29.289Z,50.03
2018-10-18T03:15:57.516Z,168.93
2018-10-18T03:18:25.674Z,111.13
2018-10-18T03:20:53.855Z,516.60
2018-10-18T03:23:22.090Z,138.67
2018-10-18T03:25:50.315Z,316.83
2018-10-18T03:28:18.533Z,574.97
2018-10-18T03:30:46.710Z,445.37
2018-10-18T03:33:14.866Z,674.73
2018-10-18T03:35:43.004Z,688.03
2018-10-18T03:38:11.419Z,348.53
2018-10-18T03:40:40.645Z,793.50
2018-10-18T03:43:08.801Z,272.33
2018-10-18T03:45:37.031Z,350.10
2018-10-18T03:48:05.254Z,292.57
2018-10-18T03:50:33.498Z,426.70
2018-10-18T03:53:01.768Z,145.47
2018-10-18T03:55:29.940Z,192.63
2018-10-18T03:57:58.169Z,504.13
2018-10-18T04:00:26.454Z,643.60
2018-10-18T04:02:54.623Z,394.03
2018-10-18T04:05:22.786Z,267.50
2018-10-18T04:07:50.942Z,162.83
2018-10-18T04:10:19.131Z,125.13
2018-10-18T04:12:47.379Z,404.07
2018-10-18T04:15:15.513Z,183.63
2018-10-18T04:17:44.030Z,267.40
2018-10-18T04:20:12.174Z,272.57
2018-10-18T04:22:40.375Z,196.23
2018-10-18T04:25:08.588Z,393.87
2018-10-18T04:27:36.768Z,173.80
2018-10-18T04:30:05.868Z,279.60
2018-10-18T04:32:35.443Z,156.77
2018-10-18T04:35:04.293Z,96.70
2018-10-18T04:37:34.189Z,223.87
2018-10-18T04:40:05.874Z,322.13
2018-10-18T04:42:34.101Z,116.53
2018-10-18T04:45:03.115Z,207.40
2018-10-18T04:47:33.580Z,83.90
2018-10-18T04:50:05.096Z,174.77
2018-10-18T04:52:34.933Z,223.23
2018-10-18T04:55:03.173Z,271.50
2018-10-18T04:57:35.864Z,237.63
2018-10-18T05:00:04.670Z,213.43
2018-10-18T05:02:32.880Z,338.87
2018-10-18T05:06:09.100Z,643.73
2018-10-18T05:08:37.961Z,368.90
2018-10-18T05:11:06.585Z,306.83
2018-10-18T05:13:34.748Z,164.03
2018-10-18T05:16:08.012Z,225.53
2018-10-18T05:18:39.404Z,111.90
2018-10-18T05:21:11.049Z,139.07
2018-10-18T05:23:40.272Z,130.67
2018-10-18T05:26:09.323Z,163.50
2018-10-18T05:28:41.350Z,116.97
2018-10-18T05:31:13.854Z,319.87
2018-10-18T05:33:41.958Z,44.80
2018-10-18T05:36:10.839Z,153.20
2018-10-18T05:38:39.048Z,399.30
2018-10-18T05:41:08.144Z,204.90
2018-10-18T05:43:36.260Z,369.63
2018-10-18T05:46:04.523Z,462.50
2018-10-18T05:48:32.801Z,182.13
2018-10-18T05:51:00.915Z,289.17
2018-10-18T05:53:30.404Z,202.10
2018-10-18T05:55:58.655Z,151.97
2018-10-18T05:58:26.807Z,219.47
2018-10-18T06:00:55.046Z,150.57
2018-10-18T06:03:23.235Z,132.07
2018-10-18T06:05:51.488Z,93.23
2018-10-18T06:08:19.682Z,79.70
2018-10-18T06:11:04.919Z,123.37
2018-10-18T06:13:33.164Z,97.70
2018-10-18T06:16:01.430Z,284.40
2018-10-18T06:18:29.725Z,246.80
2018-10-18T06:20:57.909Z,188.60
2018-10-18T06:23:26.256Z,250.97
2018-10-18T06:25:54.362Z,134.73
2018-10-18T06:28:22.614Z,90.67
2018-10-18T06:30:50.785Z,120.83
2018-10-18T06:33:19.003Z,63.27
2018-10-18T06:35:47.274Z,142.10
2018-10-18T06:38:15.475Z,157.23
2018-10-18T06:40:43.796Z,455.23
2018-10-18T06:43:12.116Z,328.63
2018-10-18T06:45:40.316Z,285.70
2018-10-18T06:48:08.611Z,218.53
2018-10-18T06:50:36.753Z,94.93
2018-10-18T06:53:05.187Z,173.87
2018-10-18T06:55:34.027Z,214.10
2018-10-18T06:58:02.494Z,109.40
2018-10-18T07:00:30.873Z,82.43
2018-10-18T07:02:59.014Z,199.13
2018-10-18T07:05:27.295Z,243.40
2018-10-18T07:07:55.501Z,334.30
2018-10-18T07:10:23.711Z,91.27
2018-10-18T07:12:51.879Z,103.87
2018-10-18T07:15:20.148Z,140.63
2018-10-18T07:17:48.464Z,47.83
2018-10-18T07:20:16.649Z,114.90
2018-10-18T07:22:44.866Z,113.07
2018-10-18T07:25:14.319Z,34.07
2018-10-18T07:27:42.967Z,85.50
2018-10-18T07:30:13.800Z,84.70
2018-10-18T07:32:42.080Z,62.17
2018-10-18T07:35:11.986Z,162.13
2018-10-18T07:37:40.145Z,147.13
2018-10-18T07:40:12.565Z,121.30
2018-10-18T07:42:40.829Z,113.03
2018-10-18T07:45:10.079Z,61.10
2018-10-18T07:47:38.401Z,37.00
2018-10-18T07:50:07.965Z,198.50
2018-10-18T07:52:36.510Z,42.53
2018-10-18T07:55:06.266Z,117.30
2018-10-18T07:57:34.582Z,170.03
2018-10-18T08:00:03.066Z,299.53
2018-10-18T08:02:31.166Z,68.50
2018-10-18T08:04:59.420Z,140.67
2018-10-18T08:07:27.653Z,68.73
2018-10-18T08:09:55.841Z,41.83
2018-10-18T08:12:24.013Z,43.43
2018-10-18T08:14:53.023Z,29.57
2018-10-18T08:17:21.295Z,41.10
2018-10-18T08:19:49.438Z,47.67
2018-10-18T08:22:17.694Z,34.67
2018-10-18T08:24:45.875Z,42.07
2018-10-18T08:27:14.068Z,20.60
2018-10-18T08:29:42.897Z,18.33
2018-10-18T08:32:11.100Z,17.53
2018-10-18T08:34:39.265Z,13.53
2018-10-18T08:37:07.568Z,14.70
2018-10-18T08:39:35.824Z,12.23
2018-10-18T08:42:04.248Z,13.90
2018-10-18T08:44:32.628Z,13.57
2018-10-18T08:47:00.726Z,13.13
2018-10-18T08:49:28.890Z,13.47
2018-10-18T08:51:57.171Z,13.40
2018-10-18T08:54:25.460Z,10.93
2018-10-18T08:56:53.635Z,12.20
2018-10-18T08:59:21.867Z,14.10
2018-10-18T09:01:50.037Z,10.97
2018-10-18T09:04:18.188Z,10.50
2018-10-18T09:06:46.449Z,12.20
2018-10-18T09:09:14.744Z,13.90
2018-10-18T09:11:42.875Z,10.93
2018-10-18T09:14:11.117Z,14.63
2018-10-18T09:16:39.309Z,11.93
2018-10-18T09:19:07.541Z,83.50
2018-10-18T09:21:35.758Z,26.13
2018-10-18T09:24:04.550Z,15.80
2018-10-18T09:26:32.854Z,11.57
2018-10-18T09:29:01.142Z,11.77
2018-10-18T09:31:29.344Z,26.37
2018-10-18T09:33:57.534Z,18.37
2018-10-18T09:36:25.808Z,11.20
2018-10-18T09:38:53.978Z,12.97
2018-10-18T09:41:22.327Z,10.87
2018-10-18T09:43:55.082Z,11.10
2018-10-18T09:46:23.207Z,11.33
2018-10-18T09:48:51.292Z,14.63
2018-10-18T09:51:19.529Z,12.07
2018-10-18T09:53:47.701Z,13.87
2018-10-18T09:56:16.035Z,14.73
2018-10-18T09:58:45.263Z,13.57
2018-10-18T10:01:19.052Z,11.37
2018-10-18T10:03:47.216Z,16.53
2018-10-18T10:06:15.494Z,24.30
2018-10-18T10:08:43.670Z,12.67
2018-10-18T10:11:11.919Z,14.27
2018-10-18T10:13:40.076Z,14.73
2018-10-18T10:16:08.222Z,13.23
2018-10-18T10:18:37.716Z,13.63
2018-10-18T10:21:06.050Z,14.17
2018-10-18T10:23:34.231Z,13.53
2018-10-18T10:26:02.727Z,15.67
2018-10-18T10:28:31.457Z,20.63
2018-10-18T10:30:59.758Z,15.57
2018-10-18T10:33:28.022Z,17.80
2018-10-18T10:35:56.267Z,16.77
2018-10-18T10:38:24.457Z,16.30
2018-10-18T10:40:52.608Z,18.20
2018-10-18T10:43:20.865Z,15.87
2018-10-18T10:45:49.210Z,14.90
2018-10-18T10:48:17.476Z,17.57
2018-10-18T10:50:45.665Z,16.57
2018-10-18T10:53:13.866Z,15.57
2018-10-18T10:55:42.103Z,14.43
2018-10-18T10:58:10.361Z,21.23
2018-10-18T11:01:19.174Z,18.45
2018-10-18T11:03:48.023Z,18.90
2018-10-18T11:06:16.307Z,16.37
2018-10-18T11:08:44.545Z,23.65
2018-10-18T11:11:13.780Z,19.85
2018-10-18T11:13:42.058Z,18.25
2018-10-18T11:16:10.218Z,20.92
2018-10-18T11:18:38.952Z,20.15
2018-10-18T11:21:08.423Z,20.40
2018-10-18T11:23:37.335Z,16.27
2018-10-18T11:26:05.834Z,16.50
2018-10-18T11:28:34.124Z,15.23
2018-10-18T11:31:02.341Z,16.25
2018-10-18T11:33:30.639Z,18.30
2018-10-18T11:35:58.896Z,14.90
2018-10-18T11:38:27.123Z,14.83
2018-10-18T11:40:55.352Z,15.75
2018-10-18T11:43:23.623Z,14.68
2018-10-18T11:45:51.758Z,15.85
2018-10-18T11:48:20.044Z,20.20
2018-10-18T11:50:48.314Z,18.82
2018-10-18T11:53:16.482Z,14.58
2018-10-18T11:55:44.690Z,16.05
2018-10-18T11:58:14.016Z,14.18
2018-10-18T12:00:42.300Z,12.43
2018-10-18T12:03:10.512Z,13.38
2018-10-18T12:05:38.698Z,12.78
2018-10-18T12:08:07.011Z,16.12
2018-10-18T12:10:35.130Z,14.43
2018-10-18T12:13:03.343Z,14.80
2018-10-18T12:15:31.571Z,12.23
2018-10-18T12:17:59.706Z,14.13
2018-10-18T12:20:27.926Z,12.95
2018-10-18T12:22:56.211Z,11.12
2018-10-18T12:25:24.362Z,15.08
2018-10-18T12:27:52.909Z,9.73
2018-10-18T12:30:21.201Z,12.90
2018-10-18T12:32:49.422Z,9.43
2018-10-18T12:35:17.731Z,10.58
2018-10-18T12:37:45.859Z,13.28
2018-10-18T12:40:14.157Z,9.90
2018-10-18T12:42:43.667Z,10.00
2018-10-18T12:45:12.448Z,10.98
2018-10-18T12:47:40.669Z,9.43
2018-10-18T12:50:09.016Z,9.90
2018-10-18T12:52:37.208Z,9.28
2018-10-18T12:55:05.681Z,11.35
2018-10-18T12:57:33.963Z,11.60
2018-10-18T13:00:02.209Z,11.70
2018-10-18T13:02:30.445Z,11.35
2018-10-18T13:04:58.557Z,10.13
2018-10-18T13:07:26.792Z,14.65
2018-10-18T13:09:54.943Z,13.43
2018-10-18T13:12:23.221Z,9.90
2018-10-18T13:14:51.273Z,16.77
2018-10-18T13:17:19.457Z,9.80
2018-10-18T13:19:47.659Z,14.98
2018-10-18T13:22:15.821Z,13.95
2018-10-18T13:24:44.041Z,17.83
2018-10-18T13:27:12.215Z,16.73
2018-10-18T13:29:40.377Z,18.73
2018-10-18T13:32:08.643Z,25.83
2018-10-18T13:34:36.788Z,20.77
2018-10-18T13:37:05.291Z,22.47
2018-10-18T13:39:33.455Z,21.30
2018-10-18T13:42:01.796Z,19.57
2018-10-18T13:44:29.881Z,19.27
2018-10-18T13:46:58.146Z,20.90
2018-10-18T13:49:26.473Z,21.90
2018-10-18T13:51:54.666Z,20.73
2018-10-18T13:54:22.924Z,19.43
2018-10-18T13:56:51.031Z,23.30
2018-10-18T13:59:36.353Z,23.27
2018-10-18T14:02:04.982Z,25.63
2018-10-18T14:04:33.128Z,24.63
2018-10-18T14:07:01.292Z,21.57
2018-10-18T14:09:29.462Z,26.93
2018-10-18T14:11:57.637Z,27.20
2018-10-18T14:14:25.843Z,16.47
2018-10-18T14:16:54.069Z,14.27
2018-10-18T14:19:22.371Z,19.43
2018-10-18T14:21:50.692Z,15.60
2018-10-18T14:24:19.039Z,13.83
2018-10-18T14:26:47.283Z,14.90
2018-10-18T14:29:15.571Z,16.43
2018-10-18T14:31:43.755Z,15.33
2018-10-18T14:34:12.009Z,18.23
2018-10-18T14:36:43.684Z,19.43
2018-10-18T14:39:11.892Z,16.80
2018-10-18T14:41:40.055Z,15.63
2018-10-18T14:44:08.221Z,16.73
2018-10-18T14:46:36.447Z,16.90
2018-10-18T14:49:04.782Z,17.27
2018-10-18T14:51:32.999Z,18.30
2018-10-18T14:54:01.234Z,19.70
2018-10-18T14:56:29.463Z,20.23
2018-10-18T14:58:57.827Z,22.60
2018-10-18T15:01:26.089Z,18.77
2018-10-18T15:03:54.279Z,16.27
2018-10-18T15:06:22.485Z,20.50
2018-10-18T15:08:50.726Z,17.67
2018-10-18T15:11:18.876Z,19.80
2018-10-18T15:13:47.093Z,22.57
2018-10-18T15:16:15.312Z,19.63
2018-10-18T15:18:43.542Z,16.23
2018-10-18T15:21:12.621Z,18.23
2018-10-18T15:23:40.843Z,18.70
2018-10-18T15:26:09.115Z,22.63
2018-10-18T15:28:37.244Z,22.87
2018-10-18T15:31:05.714Z,18.07
2018-10-18T15:33:33.958Z,24.03
2018-10-18T15:36:02.137Z,20.93
2018-10-18T15:38:30.479Z,18.23
2018-10-18T15:40:58.613Z,21.87
2018-10-18T15:43:26.765Z,23.97
2018-10-18T15:45:55.626Z,21.10
2018-10-18T15:48:23.885Z,19.13
2018-10-18T15:50:52.042Z,20.47
2018-10-18T15:53:20.348Z,25.13
2018-10-18T15:55:48.434Z,24.10
2018-10-18T15:58:16.747Z,21.70
2018-10-18T16:00:45.850Z,23.90
2018-10-18T16:03:14.056Z,20.77
2018-10-18T16:05:42.226Z,20.10
2018-10-18T16:08:10.457Z,22.67
2018-10-18T16:10:38.682Z,21.10
2018-10-18T16:13:06.926Z,20.67
2018-10-18T16:15:35.134Z,21.03
2018-10-18T16:18:03.315Z,23.20
2018-10-18T16:20:31.512Z,28.23
2018-10-18T16:22:59.798Z,40.13
2018-10-18T16:25:28.003Z,31.97
2018-10-18T16:27:56.260Z,37.43
2018-10-18T16:30:24.565Z,28.17
2018-10-18T16:32:52.721Z,33.97
2018-10-18T16:35:20.997Z,30.67
2018-10-18T16:37:49.225Z,21.73
2018-10-18T16:40:17.435Z,22.37
2018-10-18T16:42:45.661Z,26.27
2018-10-18T16:45:13.971Z,25.20
2018-10-18T16:47:42.359Z,27.37
2018-10-18T16:50:11.167Z,27.87
2018-10-18T16:52:39.400Z,24.17
2018-10-18T16:55:07.661Z,30.20
2018-10-18T16:57:35.891Z,31.90
2018-10-18T17:00:05.441Z,26.20
2018-10-18T17:02:33.692Z,28.83
2018-10-18T17:05:01.858Z,32.93
2018-10-18T17:07:30.087Z,28.10
2018-10-18T17:09:58.377Z,26.03
2018-10-18T17:12:26.619Z,27.20
2018-10-18T17:14:54.824Z,24.70
2018-10-18T17:17:22.973Z,24.87
2018-10-18T17:19:51.175Z,21.17
2018-10-18T17:22:19.431Z,21.37
2018-10-18T17:24:47.704Z,27.17
2018-10-18T17:27:16.100Z,26.57
2018-10-18T17:29:44.272Z,23.63
2018-10-18T17:32:12.655Z,26.77
2018-10-18T17:34:40.667Z,31.17
2018-10-18T17:37:08.940Z,28.77
2018-10-18T17:39:37.983Z,29.67
2018-10-18T17:42:08.389Z,29.50
2018-10-18T17:44:41.193Z,28.57
2018-10-18T17:47:09.483Z,29.57
2018-10-18T17:49:37.730Z,28.37
2018-10-18T17:52:06.228Z,29.50
2018-10-18T17:54:34.389Z,27.73
2018-10-18T17:57:02.599Z,32.07
2018-10-18T17:59:30.853Z,25.27
2018-10-18T18:01:59.058Z,29.07
2018-10-18T18:04:27.308Z,35.50
2018-10-18T18:06:55.633Z,27.67
2018-10-18T18:09:23.797Z,34.67
2018-10-18T18:11:51.951Z,36.17
2018-10-18T18:14:20.186Z,31.73
2018-10-18T18:16:48.412Z,28.10
2018-10-18T18:19:16.653Z,33.37
2018-10-18T18:21:44.893Z,29.10
2018-10-18T18:24:13.080Z,32.60
2018-10-18T18:26:45.347Z,25.30
2018-10-18T18:29:09.690Z,24.60
2018-10-18T18:31:37.829Z,29.27
2018-10-18T18:34:06.684Z,25.30
2018-10-18T18:36:34.876Z,32.07
2018-10-18T18:39:04.257Z,30.30
2018-10-18T18:41:32.488Z,30.70
2018-10-18T18:44:00.784Z,29.73
2018-10-18T18:46:31.533Z,33.47
2018-10-18T18:48:59.721Z,29.53
2018-10-18T18:51:27.883Z,31.63
2018-10-18T18:53:56.072Z,31.00
2018-10-18T18:56:24.234Z,31.47
2018-10-18T18:58:52.462Z,32.53
2018-10-18T19:01:20.718Z,34.17
2018-10-18T19:03:48.909Z,30.73
2018-10-18T19:06:17.148Z,33.07
2018-10-18T19:08:45.379Z,35.87
2018-10-18T19:11:13.611Z,35.57
2018-10-18T19:13:41.804Z,33.03
2018-10-18T19:16:10.045Z,37.50
2018-10-18T19:18:38.397Z,30.43
2018-10-18T19:21:06.697Z,33.40
2018-10-18T19:23:34.826Z,27.60
2018-10-18T19:26:03.055Z,30.87
2018-10-18T19:28:31.691Z,32.93
2018-10-18T19:30:59.900Z,30.40
2018-10-18T19:33:28.175Z,28.97
2018-10-18T19:35:56.356Z,29.90
2018-10-18T19:38:24.577Z,35.03
2018-10-18T19:40:53.391Z,36.27
2018-10-18T19:43:21.583Z,34.13
2018-10-18T19:45:49.862Z,34.70
2018-10-18T19:48:17.939Z,31.70
2018-10-18T19:50:46.125Z,34.27
2018-10-18T19:53:14.310Z,34.87
2018-10-18T19:55:42.430Z,29.83
2018-10-18T19:58:10.663Z,33.47
2018-10-18T20:00:38.848Z,29.67
2018-10-18T20:03:06.951Z,31.83
2018-10-18T20:05:35.103Z,31.53
2018-10-18T20:08:03.610Z,31.67
2018-10-18T20:10:31.792Z,31.93
2018-10-18T20:13:00.078Z,33.37
2018-10-18T20:15:28.200Z,35.23
2018-10-18T20:17:57.430Z,31.57
2018-10-18T20:20:25.490Z,37.10
2018-10-18T20:22:53.618Z,33.17
2018-10-18T20:25:21.944Z,33.83
2018-10-18T20:27:49.956Z,34.70
2018-10-18T20:30:18.731Z,39.87
2018-10-18T20:32:46.900Z,35.73
2018-10-18T20:35:15.075Z,32.23
2018-10-18T20:37:43.261Z,33.83
2018-10-18T20:40:13.261Z,35.03
2018-10-18T20:42:41.606Z,38.40
2018-10-18T20:45:14.290Z,33.00
2018-10-18T20:47:43.537Z,33.77
2018-10-18T20:50:12.436Z,33.20
2018-10-18T20:52:40.611Z,30.70
2018-10-18T20:55:09.170Z,31.93
2018-10-18T20:57:38.063Z,41.53
2018-10-18T21:00:08.277Z,35.53
2018-10-18T21:02:36.457Z,38.10
2018-10-18T21:05:05.302Z,33.87
2018-10-18T21:07:33.444Z,34.40
2018-10-18T21:10:01.584Z,36.33
2018-10-18T21:12:29.832Z,33.83
2018-10-18T21:14:57.942Z,32.13
2018-10-18T21:17:26.033Z,35.83
2018-10-18T21:19:54.181Z,30.80
2018-10-18T21:22:22.385Z,38.73
2018-10-18T21:24:50.485Z,33.60
2018-10-18T21:27:18.636Z,31.53
2018-10-18T21:29:46.819Z,33.80
2018-10-18T21:32:15.564Z,28.23
2018-10-18T21:34:45.418Z,35.77
2018-10-18T21:37:13.596Z,34.53
2018-10-18T21:39:42.368Z,32.53
2018-10-18T21:42:10.577Z,35.60
2018-10-18T21:44:39.005Z,26.67
2018-10-18T21:47:07.230Z,28.40
2018-10-18T21:49:35.409Z,29.07
2018-10-18T21:52:03.610Z,30.63
2018-10-18T21:54:31.761Z,28.30
2018-10-18T21:56:59.961Z,33.47
2018-10-18T21:59:28.240Z,29.37
2018-10-18T22:01:56.486Z,32.87
2018-10-18T22:04:24.615Z,32.13
2018-10-18T22:06:52.773Z,39.07
2018-10-18T22:09:22.075Z,34.23
2018-10-18T22:11:50.232Z,34.27
2018-10-18T22:14:19.476Z,31.33
2018-10-18T22:16:47.608Z,31.97
2018-10-18T22:19:15.751Z,37.17
2018-10-18T22:21:43.903Z,34.63
2018-10-18T22:24:12.109Z,37.63
2018-10-18T22:26:40.284Z,32.87
2018-10-18T22:29:08.472Z,32.37
2018-10-18T22:31:36.859Z,35.43
2018-10-18T22:34:05.394Z,32.17
2018-10-18T22:36:33.612Z,34.70
2018-10-18T22:39:01.810Z,34.10
2018-10-18T22:41:29.919Z,32.20
2018-10-18T22:43:58.088Z,33.30
2018-10-18T22:46:26.240Z,36.27
2018-10-18T22:48:54.440Z,31.97
2018-10-18T22:51:22.640Z,41.73
2018-10-18T22:53:50.739Z,34.80
2018-10-18T22:56:18.940Z,37.83
2018-10-18T22:58:47.086Z,31.60
2018-10-18T23:01:15.235Z,37.40
2018-10-18T23:03:43.338Z,32.17
2018-10-18T23:06:11.574Z,34.33
2018-10-18T23:08:39.748Z,37.57
2018-10-18T23:11:08.103Z,34.30
2018-10-18T23:13:36.213Z,32.67
2018-10-18T23:16:04.479Z,29.90
2018-10-18T23:18:32.634Z,30.13
2018-10-18T23:21:00.851Z,29.10
2018-10-18T23:23:28.979Z,28.40
2018-10-18T23:25:57.075Z,28.67
2018-10-18T23:28:25.180Z,29.70
2018-10-18T23:30:58.455Z,32.27
2018-10-18T23:33:26.719Z,27.70
2018-10-18T23:35:54.906Z,29.53
2018-10-18T23:38:23.063Z,38.33
2018-10-18T23:40:51.193Z,32.83
2018-10-18T23:43:19.340Z,33.23
2018-10-18T23:45:47.548Z,34.33
2018-10-18T23:48:16.008Z,30.87
2018-10-18T23:50:44.238Z,33.90
2018-10-18T23:53:12.399Z,33.63
2018-10-18T23:55:40.545Z,29.63
2018-10-18T23:58:08.765Z,29.17
